createdAt,value
2022-10-26T00:01:23.256Z,10.58
2022-10-26T00:06:20.315Z,10.97
2022-10-26T00:11:18.568Z,10.97
2022-10-26T00:16:17.803Z,10.08
2022-10-26T00:21:17.999Z,10.46
2022-10-26T00:26:17.213Z,10.08
2022-10-26T00:31:17.441Z,9.93
2022-10-26T00:36:16.714Z,10.29
2022-10-26T00:41:15.820Z,10.29
2022-10-26T00:46:14.041Z,10.29
2022-10-26T00:51:17.261Z,10.29
2022-10-26T00:56:14.440Z,10.29
2022-10-26T01:01:12.792Z,10.29
2022-10-26T01:06:10.790Z,10.29
2022-10-26T01:11:10.963Z,9.74
2022-10-26T01:16:11.137Z,10.09
2022-10-26T01:21:09.300Z,9.74
2022-10-26T01:26:06.492Z,10.09
2022-10-26T01:31:05.699Z,10.09
2022-10-26T01:36:08.957Z,10.42
2022-10-26T01:41:06.183Z,10.09
2022-10-26T01:46:04.408Z,10.42
2022-10-26T01:51:03.678Z,10.09
2022-10-26T01:56:03.818Z,10.42
2022-10-26T02:01:03.349Z,10.42
2022-10-26T02:06:02.305Z,9.52
2022-10-26T02:11:01.604Z,9.52
2022-10-26T02:16:00.924Z,9.52
2022-10-26T02:20:59.041Z,9.52
2022-10-26T02:25:58.344Z,9.84
2022-10-26T02:30:59.653Z,9.84
2022-10-26T02:35:56.992Z,10.16
2022-10-26T02:40:56.085Z,9.52
2022-10-26T02:45:54.423Z,9.52
2022-10-26T02:50:54.754Z,9.84
2022-10-26T02:55:54.879Z,10.16
2022-10-26T03:00:57.199Z,9.84
2022-10-26T03:05:53.522Z,9.84
2022-10-26T03:10:51.841Z,9.84
2022-10-26T03:15:51.131Z,9.84
2022-10-26T03:20:51.428Z,9.52
2022-10-26T03:25:49.748Z,9.52
2022-10-26T03:30:50.061Z,9.52
2022-10-26T03:35:49.348Z,9.18
2022-10-26T03:40:47.689Z,9.52
2022-10-26T03:45:46.856Z,9.52
2022-10-26T03:50:46.014Z,10.42
2022-10-26T03:55:45.147Z,10.42
2022-10-26T04:00:45.281Z,9.84
2022-10-26T04:05:43.613Z,9.84
2022-10-26T04:10:42.818Z,9.84
2022-10-26T04:15:43.987Z,9.84
2022-10-26T04:20:43.293Z,10.16
2022-10-26T04:25:40.619Z,10.16
2022-10-26T04:30:39.757Z,10.16
2022-10-26T04:35:38.902Z,10.79
2022-10-26T04:40:38.030Z,10.79
2022-10-26T04:45:37.196Z,10.79
2022-10-26T04:50:36.305Z,10.79
2022-10-26T04:55:35.636Z,10.79
2022-10-26T05:00:34.767Z,10.79
2022-10-26T05:05:35.083Z,9.87
2022-10-26T05:10:33.391Z,9.87
2022-10-26T05:15:32.860Z,9.57
2022-10-26T05:20:31.955Z,9.57
2022-10-26T05:25:31.288Z,10.16
2022-10-26T05:30:28.613Z,9.25
2022-10-26T05:35:28.975Z,9.57
2022-10-26T05:40:29.264Z,9.25
2022-10-26T05:45:28.584Z,9.25
2022-10-26T05:50:27.923Z,10.16
2022-10-26T05:55:27.029Z,9.84
2022-10-26T06:00:25.321Z,9.84
2022-10-26T06:05:25.650Z,9.84
2022-10-26T06:10:25.008Z,9.52
2022-10-26T06:15:25.328Z,9.52
2022-10-26T06:20:24.649Z,9.52
2022-10-26T06:25:22.980Z,10.42
2022-10-26T06:30:22.305Z,10.42
2022-10-26T06:35:21.471Z,10.42
2022-10-26T06:40:20.770Z,10.09
2022-10-26T06:45:20.126Z,9.52
2022-10-26T06:50:19.235Z,9.52
2022-10-26T06:55:18.531Z,9.52
2022-10-26T07:00:21.036Z,9.52
2022-10-26T07:05:18.163Z,9.52
2022-10-26T07:10:17.498Z,10.42
2022-10-26T07:15:15.794Z,10.42
2022-10-26T07:20:16.153Z,10.09
2022-10-26T07:25:14.271Z,10.65
2022-10-26T07:30:14.604Z,10.29
2022-10-26T07:35:12.888Z,9.93
2022-10-26T07:40:12.216Z,10.83
2022-10-26T07:45:11.332Z,9.93
2022-10-26T07:50:11.631Z,9.93
2022-10-26T07:55:09.901Z,11.19
2022-10-26T08:00:09.203Z,10.83
2022-10-26T08:05:08.517Z,10.46
2022-10-26T08:10:07.823Z,11.35
2022-10-26T08:15:07.155Z,10.97
2022-10-26T08:20:08.448Z,10.97
2022-10-26T08:25:06.732Z,11.47
2022-10-26T08:30:05.010Z,11.06
2022-10-26T08:35:05.322Z,11.06
2022-10-26T08:40:04.661Z,11.06
2022-10-26T08:45:02.931Z,11.06
2022-10-26T08:50:03.223Z,11.47
2022-10-26T08:55:01.501Z,11.47
2022-10-26T09:00:02.806Z,11.47
2022-10-26T09:05:00.148Z,11.06
2022-10-26T09:10:00.308Z,11.06
2022-10-26T09:14:59.392Z,11.06
2022-10-26T09:19:57.712Z,11.06
2022-10-26T09:24:57.013Z,10.65
2022-10-26T09:29:56.346Z,10.65
2022-10-26T09:34:55.641Z,11.06
2022-10-26T09:39:56.924Z,11.06
2022-10-26T09:44:55.186Z,11.06
2022-10-26T09:49:54.456Z,11.06
2022-10-26T09:54:54.710Z,11.06
2022-10-26T09:59:52.970Z,11.06
2022-10-26T10:04:51.242Z,11.06
2022-10-26T10:09:51.529Z,10.65
2022-10-26T10:14:49.793Z,10.65
2022-10-26T10:19:51.097Z,11.53
2022-10-26T10:24:49.387Z,10.65
2022-10-26T10:29:47.712Z,10.65
2022-10-26T10:34:47.093Z,11.06
2022-10-26T10:39:46.195Z,11.06
2022-10-26T10:44:46.491Z,11.06
2022-10-26T10:49:44.786Z,11.47
2022-10-26T10:54:44.087Z,11.47
2022-10-26T10:59:43.390Z,11.47
2022-10-26T11:04:44.723Z,11.06
2022-10-26T11:09:44.168Z,11.06
2022-10-26T11:14:43.262Z,11.47
2022-10-26T11:19:41.464Z,11.47
2022-10-26T11:24:39.795Z,11.86
2022-10-26T11:29:39.863Z,10.97
2022-10-26T11:34:38.147Z,11.86
2022-10-26T11:39:37.276Z,10.97
2022-10-26T11:44:37.410Z,10.97
2022-10-26T11:49:36.713Z,10.97
2022-10-26T11:54:36.149Z,11.86
2022-10-26T11:59:36.281Z,10.97
2022-10-26T12:04:35.587Z,10.97
2022-10-26T12:09:35.593Z,11.47
2022-10-26T12:14:32.209Z,10.97
2022-10-26T12:19:32.530Z,10.97
2022-10-26T12:24:31.878Z,10.97
2022-10-26T12:29:30.148Z,11.35
2022-10-26T12:34:30.425Z,11.35
2022-10-26T12:39:28.705Z,11.35
2022-10-26T12:44:28.001Z,10.97
2022-10-26T12:49:26.311Z,11.86
2022-10-26T12:54:26.634Z,11.86
2022-10-26T12:59:26.942Z,11.35
2022-10-26T13:04:25.260Z,11.35
2022-10-26T13:09:24.544Z,11.35
2022-10-26T13:14:23.852Z,11.73
2022-10-26T13:19:24.230Z,11.73
2022-10-26T13:24:23.305Z,11.73
2022-10-26T13:29:22.594Z,11.73
2022-10-26T13:34:20.801Z,11.73
2022-10-26T13:39:20.004Z,11.35
2022-10-26T13:44:20.419Z,11.35
2022-10-26T13:49:18.400Z,11.35
2022-10-26T13:54:17.628Z,11.35
2022-10-26T13:59:19.965Z,11.35
2022-10-26T14:04:16.133Z,11.35
2022-10-26T14:09:16.329Z,11.73
2022-10-26T14:14:15.523Z,12.09
2022-10-26T14:19:17.824Z,12.09
2022-10-26T14:24:13.063Z,12.45
2022-10-26T14:29:12.284Z,11.55
2022-10-26T14:34:11.477Z,11.90
2022-10-26T14:39:10.676Z,11.90
2022-10-26T14:44:09.881Z,12.24
2022-10-26T14:49:09.078Z,12.24
2022-10-26T14:54:08.272Z,12.57
2022-10-26T14:59:07.440Z,11.66
2022-10-26T15:04:06.668Z,12.24
2022-10-26T15:09:05.928Z,12.24
2022-10-26T15:14:07.121Z,12.57
2022-10-26T15:19:04.315Z,11.66
2022-10-26T15:24:05.528Z,11.66
2022-10-26T15:29:03.693Z,12.24
2022-10-26T15:34:01.877Z,11.66
2022-10-26T15:39:01.145Z,11.66
2022-10-26T15:44:01.332Z,11.66
2022-10-26T15:48:59.524Z,11.66
2022-10-26T15:53:58.675Z,11.66
2022-10-26T15:58:57.859Z,11.99
2022-10-26T16:03:57.098Z,11.99
2022-10-26T16:08:57.305Z,11.08
2022-10-26T16:13:58.377Z,11.99
2022-10-26T16:19:06.195Z,11.99
2022-10-26T16:23:54.257Z,11.33
2022-10-26T16:28:53.531Z,11.33
2022-10-26T16:33:53.551Z,11.33
2022-10-26T16:38:51.776Z,11.66
2022-10-26T16:43:51.243Z,11.66
2022-10-26T16:48:50.584Z,11.66
2022-10-26T16:53:49.436Z,11.99
2022-10-26T16:58:49.620Z,11.99
2022-10-26T17:03:49.760Z,11.08
2022-10-26T17:08:47.061Z,11.40
2022-10-26T17:13:48.574Z,11.40
2022-10-26T17:18:58.394Z,11.71
2022-10-26T17:23:45.623Z,11.40
2022-10-26T17:28:45.092Z,11.08
2022-10-26T17:33:44.477Z,11.99
2022-10-26T17:38:42.670Z,11.08
2022-10-26T17:43:45.916Z,11.66
2022-10-26T17:48:42.962Z,10.99
2022-10-26T17:53:40.308Z,11.66
2022-10-26T17:58:41.486Z,11.90
2022-10-26T18:03:39.688Z,11.90
2022-10-26T18:08:37.894Z,11.90
2022-10-26T18:13:38.076Z,11.55
2022-10-26T18:18:37.289Z,11.90
2022-10-26T18:23:36.453Z,11.55
2022-10-26T18:28:36.429Z,12.09
2022-10-26T18:33:33.830Z,12.09
2022-10-26T18:38:33.319Z,12.09
2022-10-26T18:43:34.370Z,11.73
2022-10-26T18:48:33.574Z,12.09
2022-10-26T18:53:29.787Z,12.09
2022-10-26T18:58:31.012Z,12.09
2022-10-26T19:03:33.988Z,12.09
2022-10-26T19:08:28.091Z,12.09
2022-10-26T19:13:31.799Z,12.09
2022-10-26T19:18:27.025Z,11.73
2022-10-26T19:23:25.931Z,12.25
2022-10-26T19:28:26.165Z,12.25
2022-10-26T19:33:24.794Z,11.35
2022-10-26T19:38:25.766Z,11.35
2022-10-26T19:43:23.307Z,11.35
2022-10-26T19:48:22.509Z,11.35
2022-10-26T19:53:23.619Z,11.86
2022-10-26T19:58:20.692Z,11.86
2022-10-26T20:03:20.231Z,11.86
2022-10-26T20:08:24.391Z,11.86
2022-10-26T20:13:19.341Z,11.86
2022-10-26T20:18:28.856Z,12.25
2022-10-26T20:23:17.649Z,11.86
2022-10-26T20:28:16.144Z,12.25
2022-10-26T20:33:15.364Z,12.25
2022-10-26T20:38:14.577Z,12.25
2022-10-26T20:43:16.493Z,11.47
2022-10-26T20:48:13.888Z,11.47
2022-10-26T20:53:11.878Z,11.86
2022-10-26T20:58:12.396Z,11.86
2022-10-26T21:03:10.236Z,11.86
2022-10-26T21:08:10.460Z,11.86
2022-10-26T21:13:10.643Z,11.86
2022-10-26T21:18:07.830Z,11.86
2022-10-26T21:23:08.038Z,11.47
2022-10-26T21:28:06.235Z,11.86
2022-10-26T21:33:06.480Z,11.35
2022-10-26T21:38:04.675Z,11.35
2022-10-26T21:43:03.858Z,11.35
2022-10-26T21:48:03.090Z,11.35
2022-10-26T21:53:03.278Z,12.25
2022-10-26T21:58:02.491Z,11.86
2022-10-26T22:03:02.650Z,10.65
2022-10-26T22:08:00.822Z,11.06
2022-10-26T22:12:58.023Z,11.95
2022-10-26T22:17:57.192Z,11.95
2022-10-26T22:22:58.401Z,11.06
2022-10-26T22:27:57.578Z,11.53
2022-10-26T22:32:57.739Z,11.53
2022-10-26T22:37:54.946Z,11.53
2022-10-26T22:42:54.264Z,11.11
2022-10-26T22:47:53.275Z,11.06
2022-10-26T22:52:52.671Z,10.58
2022-10-26T22:57:51.866Z,11.47
2022-10-26T23:02:52.927Z,11.47
2022-10-26T23:07:50.241Z,11.47
2022-10-26T23:12:50.462Z,11.47
2022-10-26T23:17:49.026Z,11.47
2022-10-26T23:22:48.127Z,11.47
2022-10-26T23:27:49.283Z,11.06
2022-10-26T23:32:47.543Z,11.47
2022-10-26T23:37:45.763Z,11.86
2022-10-26T23:42:44.946Z,10.97
2022-10-26T23:47:44.123Z,10.97
2022-10-26T23:52:44.316Z,10.97
2022-10-26T23:57:42.481Z,11.35
